createdAt,value
2022-09-12T00:00:42.390Z,31.33
2022-09-12T00:03:08.740Z,35.67
2022-09-12T00:05:41.846Z,31.30
2022-09-12T00:08:08.716Z,31.05
2022-09-12T00:10:39.751Z,34.03
2022-09-12T00:13:07.050Z,29.92
2022-09-12T00:15:38.822Z,34.67
2022-09-12T00:18:05.364Z,29.95
2022-09-12T00:20:31.866Z,30.15
2022-09-12T00:22:58.250Z,30.65
2022-09-12T00:25:24.600Z,31.92
2022-09-12T00:27:50.998Z,33.97
2022-09-12T00:30:17.545Z,32.63
2022-09-12T00:32:44.558Z,31.95
2022-09-12T00:35:11.442Z,34.20
2022-09-12T00:37:38.035Z,32.70
2022-09-12T00:40:04.723Z,33.42
2022-09-12T00:42:31.123Z,31.55
2022-09-12T00:44:57.430Z,29.55
2022-09-12T00:47:28.213Z,33.45
2022-09-12T00:49:56.393Z,32.83
2022-09-12T00:52:27.768Z,31.80
2022-09-12T00:55:02.557Z,30.10
2022-09-12T00:57:38.194Z,31.48
2022-09-12T01:00:16.748Z,33.13
2022-09-12T01:02:45.360Z,30.80
2022-09-12T01:05:13.441Z,29.77
2022-09-12T01:07:40.719Z,32.35
2022-09-12T01:10:09.626Z,28.25
2022-09-12T01:12:39.650Z,33.92
2022-09-12T01:15:06.623Z,29.73
2022-09-12T01:17:59.062Z,28.65
2022-09-12T01:20:53.469Z,27.83
2022-09-12T01:23:31.066Z,26.52
2022-09-12T01:26:27.778Z,27.90
2022-09-12T01:29:09.202Z,29.02
2022-09-12T01:31:49.985Z,29.08
2022-09-12T01:34:28.053Z,27.50
2022-09-12T01:37:16.988Z,29.27
2022-09-12T01:39:57.658Z,28.52
2022-09-12T01:42:40.291Z,27.30
2022-09-12T01:45:18.664Z,27.88
2022-09-12T01:47:51.086Z,31.17
2022-09-12T01:50:40.353Z,26.38
2022-09-12T01:53:12.763Z,25.58
2022-09-12T01:56:00.013Z,29.90
2022-09-12T01:58:38.120Z,29.05
2022-09-12T02:01:16.365Z,26.25
2022-09-12T02:04:17.879Z,28.70
2022-09-12T02:06:54.821Z,24.90
2022-09-12T02:09:29.531Z,25.35
2022-09-12T02:11:59.010Z,26.75
2022-09-12T02:14:29.266Z,22.83
2022-09-12T02:17:00.327Z,25.17
2022-09-12T02:19:35.868Z,24.92
2022-09-12T02:22:04.827Z,31.35
2022-09-12T02:24:40.313Z,28.25
2022-09-12T02:27:21.360Z,24.73
2022-09-12T02:29:48.839Z,25.33
2022-09-12T02:32:38.458Z,23.63
2022-09-12T02:35:08.357Z,23.85
2022-09-12T02:38:00.996Z,23.40
2022-09-12T02:40:28.286Z,28.33
2022-09-12T02:42:55.112Z,23.83
2022-09-12T02:45:23.281Z,24.80
2022-09-12T02:48:13.505Z,28.65
2022-09-12T02:50:41.703Z,24.23
2022-09-12T02:53:09.307Z,24.25
2022-09-12T02:55:37.063Z,25.77
2022-09-12T02:58:06.418Z,25.85
2022-09-12T03:00:56.885Z,19.67
2022-09-12T03:03:48.197Z,23.95
2022-09-12T03:06:35.039Z,22.08
2022-09-12T03:09:10.228Z,21.70
2022-09-12T03:12:03.284Z,22.17
2022-09-12T03:15:01.651Z,23.85
2022-09-12T03:17:42.003Z,22.30
2022-09-12T03:20:17.044Z,27.13
2022-09-12T03:25:32.642Z,20.55
2022-09-12T03:28:10.014Z,23.02
2022-09-12T03:30:41.635Z,25.88
2022-09-12T03:33:12.152Z,24.45
2022-09-12T03:35:39.076Z,24.15
2022-09-12T03:38:07.978Z,22.45
2022-09-12T03:40:35.197Z,25.35
2022-09-12T03:43:01.842Z,19.70
2022-09-12T03:45:28.292Z,25.00
2022-09-12T03:47:54.720Z,19.60
2022-09-12T03:50:21.199Z,20.73
2022-09-12T03:52:47.593Z,20.27
2022-09-12T03:55:14.232Z,23.48
2022-09-12T03:57:40.626Z,20.25
2022-09-12T04:00:08.714Z,20.17
2022-09-12T04:02:35.562Z,20.17
2022-09-12T04:05:02.038Z,17.83
2022-09-12T04:07:28.931Z,24.00
2022-09-12T04:09:56.187Z,20.30
2022-09-12T04:12:23.051Z,17.20
2022-09-12T04:14:49.591Z,25.60
2022-09-12T04:17:16.098Z,20.92
2022-09-12T04:19:42.458Z,20.13
2022-09-12T04:22:08.870Z,21.25
2022-09-12T04:24:35.249Z,23.40
2022-09-12T04:27:05.968Z,23.73
2022-09-12T04:29:35.628Z,23.88
2022-09-12T04:32:03.112Z,20.80
2022-09-12T04:34:32.003Z,18.25
2022-09-12T04:36:58.636Z,18.73
2022-09-12T04:39:25.241Z,19.23
2022-09-12T04:41:51.935Z,16.90
2022-09-12T04:44:18.333Z,20.08
2022-09-12T04:46:46.595Z,18.50
2022-09-12T04:49:16.138Z,20.50
2022-09-12T04:51:43.465Z,16.88
2022-09-12T04:54:16.014Z,17.30
2022-09-12T04:56:44.945Z,18.83
2022-09-12T04:59:13.017Z,17.55
2022-09-12T05:01:39.731Z,19.30
2022-09-12T05:04:06.224Z,17.73
2022-09-12T05:06:35.367Z,19.27
2022-09-12T05:09:03.882Z,18.70
2022-09-12T05:12:02.069Z,19.45
2022-09-12T05:14:19.428Z,15.70
2022-09-12T05:16:49.220Z,17.80
2022-09-12T05:19:16.367Z,20.15
2022-09-12T05:21:42.726Z,16.63
2022-09-12T05:24:10.815Z,16.33
2022-09-12T05:26:37.198Z,18.95
2022-09-12T05:29:04.524Z,16.67
2022-09-12T05:31:30.918Z,17.00
2022-09-12T05:33:57.653Z,17.80
2022-09-12T05:36:27.020Z,18.70
2022-09-12T05:38:53.924Z,15.05
2022-09-12T05:41:25.095Z,16.40
2022-09-12T05:43:56.868Z,19.88
2022-09-12T05:46:26.376Z,16.08
2022-09-12T05:48:56.494Z,14.82
2022-09-12T05:51:28.521Z,17.58
2022-09-12T05:53:59.958Z,13.88
2022-09-12T05:56:29.028Z,17.05
2022-09-12T05:58:58.844Z,14.40
2022-09-12T06:01:27.296Z,19.58
2022-09-12T06:03:56.091Z,14.27
2022-09-12T06:06:25.110Z,16.00
2022-09-12T06:08:53.429Z,13.80
2022-09-12T06:11:31.694Z,16.58
2022-09-12T06:13:59.067Z,17.08
2022-09-12T06:16:28.119Z,16.05
2022-09-12T06:18:56.736Z,16.70
2022-09-12T06:21:25.300Z,18.92
2022-09-12T06:23:53.147Z,19.17
2022-09-12T06:26:23.147Z,16.13
2022-09-12T06:28:50.383Z,13.32
2022-09-12T06:31:19.518Z,15.82
2022-09-12T06:33:49.166Z,14.23
2022-09-12T06:36:26.678Z,13.85
2022-09-12T06:39:04.998Z,15.95
2022-09-12T06:41:32.178Z,12.52
2022-09-12T06:43:59.637Z,13.93
2022-09-12T06:46:26.922Z,15.18
2022-09-12T06:48:56.212Z,13.77
2022-09-12T06:51:23.066Z,15.68
2022-09-12T06:53:49.684Z,12.98
2022-09-12T06:56:19.990Z,12.55
2022-09-12T06:58:48.019Z,13.30
2022-09-12T07:01:33.709Z,13.13
2022-09-12T07:04:02.934Z,10.95
2022-09-12T07:06:34.876Z,12.75
2022-09-12T07:09:04.078Z,13.48
2022-09-12T07:11:33.460Z,11.80
2022-09-12T07:14:02.151Z,12.68
2022-09-12T07:16:30.269Z,15.35
2022-09-12T07:19:01.956Z,11.07
2022-09-12T07:21:29.271Z,18.33
2022-09-12T07:23:57.727Z,13.93
2022-09-12T07:26:27.422Z,13.93
2022-09-12T07:29:00.704Z,14.35
2022-09-12T07:31:39.506Z,14.02
2022-09-12T07:34:06.788Z,13.05
2022-09-12T07:36:33.711Z,14.25
2022-09-12T07:39:00.563Z,15.00
2022-09-12T07:41:28.966Z,17.42
2022-09-12T07:43:57.514Z,14.52
2022-09-12T07:46:25.943Z,14.13
2022-09-12T07:48:53.810Z,15.65
2022-09-12T07:51:21.254Z,13.73
2022-09-12T07:53:49.102Z,17.02
2022-09-12T07:56:16.457Z,14.00
2022-09-12T07:58:43.938Z,13.40
2022-09-12T08:01:14.924Z,12.45
2022-09-12T08:03:43.275Z,18.83
2022-09-12T08:06:20.995Z,14.80
2022-09-12T08:08:48.740Z,16.23
2022-09-12T08:11:17.426Z,15.45
2022-09-12T08:13:44.695Z,17.33
2022-09-12T08:16:14.724Z,13.45
2022-09-12T08:18:41.791Z,17.27
2022-09-12T08:21:14.181Z,13.43
2022-09-12T08:23:41.232Z,18.15
2022-09-12T08:26:08.233Z,14.18
2022-09-12T08:28:36.477Z,15.77
2022-09-12T08:31:12.886Z,14.25
2022-09-12T08:33:39.886Z,15.55
2022-09-12T08:36:11.731Z,18.33
2022-09-12T08:38:40.678Z,14.35
2022-09-12T08:41:39.435Z,12.50
2022-09-12T08:44:24.588Z,14.05
2022-09-12T08:49:48.421Z,11.90
2022-09-12T08:52:25.448Z,12.88
2022-09-12T08:54:52.058Z,13.98
2022-09-12T08:57:18.477Z,12.57
2022-09-12T08:59:46.245Z,11.57
2022-09-12T09:02:45.819Z,14.10
2022-09-12T09:05:49.448Z,10.48
2022-09-12T09:08:40.096Z,13.98
2022-09-12T09:11:06.423Z,10.90
2022-09-12T09:14:13.000Z,11.38
2022-09-12T09:16:44.194Z,9.52
2022-09-12T09:19:20.021Z,9.93
2022-09-12T09:21:59.278Z,12.98
2022-09-12T09:24:34.087Z,9.40
2022-09-12T09:27:23.534Z,9.75
2022-09-12T09:29:55.934Z,10.93
2022-09-12T09:32:34.347Z,10.98
2022-09-12T09:35:03.004Z,9.00
2022-09-12T09:37:58.453Z,8.30
2022-09-12T09:40:46.953Z,8.57
2022-09-12T09:43:23.032Z,11.20
2022-09-12T09:45:51.835Z,8.07
2022-09-12T09:48:32.495Z,7.50
2022-09-12T09:51:02.052Z,9.68
2022-09-12T09:53:50.234Z,6.80
2022-09-12T09:56:49.326Z,7.50
2022-09-12T09:59:19.911Z,8.32
2022-09-12T10:01:48.068Z,9.65
2022-09-12T10:04:24.396Z,9.05
2022-09-12T10:06:56.226Z,6.35
2022-09-12T10:09:34.452Z,11.48
2022-09-12T10:12:20.171Z,5.28
2022-09-12T10:15:01.146Z,6.15
2022-09-12T10:17:46.270Z,6.93
2022-09-12T10:20:42.890Z,6.95
2022-09-12T10:23:29.394Z,5.93
2022-09-12T10:26:00.753Z,4.38
2022-09-12T10:28:39.930Z,6.55
2022-09-12T10:31:16.727Z,5.47
2022-09-12T10:33:52.488Z,5.10
2022-09-12T10:36:20.818Z,4.53
2022-09-12T10:38:57.422Z,5.50
2022-09-12T10:41:24.820Z,4.75
2022-09-12T10:43:51.292Z,4.35
2022-09-12T10:46:17.609Z,7.03
2022-09-12T10:48:47.694Z,10.63
2022-09-12T10:51:29.622Z,5.25
2022-09-12T10:53:59.287Z,4.07
2022-09-12T10:56:32.580Z,3.55
2022-09-12T10:59:01.958Z,4.75
2022-09-12T11:02:00.563Z,5.95
2022-09-12T11:04:42.037Z,4.03
2022-09-12T11:07:37.929Z,4.25
2022-09-12T11:10:36.748Z,4.80
2022-09-12T11:13:34.998Z,4.18
2022-09-12T11:16:13.536Z,3.97
2022-09-12T11:19:12.333Z,4.43
2022-09-12T11:22:11.862Z,3.95
2022-09-12T11:24:58.658Z,2.72
2022-09-12T11:28:00.207Z,3.05
2022-09-12T11:30:32.207Z,2.60
2022-09-12T11:33:42.708Z,3.03
2022-09-12T11:36:37.444Z,3.20
2022-09-12T11:39:12.825Z,3.17
2022-09-12T11:41:43.537Z,2.67
2022-09-12T11:44:22.327Z,4.45
2022-09-12T11:46:51.931Z,3.60
2022-09-12T11:49:31.374Z,5.13
2022-09-12T11:52:10.686Z,2.95
2022-09-12T11:55:12.500Z,3.30
2022-09-12T11:58:00.729Z,2.95
2022-09-12T12:00:35.242Z,3.45
2022-09-12T12:03:13.627Z,3.22
2022-09-12T12:05:49.552Z,2.75
2022-09-12T12:08:16.148Z,2.30
2022-09-12T12:10:49.837Z,3.60
2022-09-12T12:13:27.799Z,3.95
2022-09-12T12:16:05.377Z,2.50
2022-09-12T12:18:34.156Z,3.28
2022-09-12T12:21:29.681Z,3.08
2022-09-12T12:24:08.156Z,3.20
2022-09-12T12:26:44.554Z,2.95
2022-09-12T12:29:11.975Z,4.15
2022-09-12T12:32:16.179Z,6.30
2022-09-12T12:34:47.272Z,3.45
2022-09-12T12:37:19.522Z,4.93
2022-09-12T12:39:47.811Z,3.13
2022-09-12T12:42:32.546Z,3.83
2022-09-12T12:45:04.250Z,4.75
2022-09-12T12:47:41.836Z,3.22
2022-09-12T12:50:23.786Z,4.35
2022-09-12T12:53:06.854Z,3.03
2022-09-12T12:55:37.588Z,4.53
2022-09-12T12:58:05.749Z,3.60
2022-09-12T13:00:37.070Z,3.88
2022-09-12T13:03:06.612Z,4.65
2022-09-12T13:05:49.194Z,3.85
2022-09-12T13:08:18.812Z,2.95
2022-09-12T13:10:58.444Z,3.85
2022-09-12T13:13:32.052Z,4.65
2022-09-12T13:15:58.702Z,6.45
2022-09-12T13:18:39.342Z,5.68
2022-09-12T13:21:19.070Z,4.15
2022-09-12T13:24:00.725Z,5.05
2022-09-12T13:26:27.092Z,3.28
2022-09-12T13:29:29.271Z,3.35
2022-09-12T13:31:59.297Z,3.80
2022-09-12T13:34:33.661Z,4.03
2022-09-12T13:37:27.015Z,2.97
2022-09-12T13:40:32.088Z,5.63
2022-09-12T13:43:13.903Z,5.93
2022-09-12T13:45:41.507Z,5.55
2022-09-12T13:48:16.676Z,6.05
2022-09-12T13:50:53.572Z,3.35
2022-09-12T13:53:23.765Z,3.95
2022-09-12T13:55:53.845Z,4.30
2022-09-12T13:58:29.259Z,3.20
2022-09-12T14:01:14.514Z,3.15
2022-09-12T14:03:59.366Z,5.53
2022-09-12T14:06:27.777Z,2.00
2022-09-12T14:09:00.785Z,3.05
2022-09-12T14:11:29.514Z,2.53
2022-09-12T14:13:56.984Z,2.83
2022-09-12T14:16:28.953Z,3.80
2022-09-12T14:18:56.084Z,3.05
2022-09-12T14:21:28.547Z,2.78
2022-09-12T14:23:55.159Z,2.25
2022-09-12T14:26:22.531Z,2.97
2022-09-12T14:28:49.484Z,3.20
2022-09-12T14:31:30.414Z,2.20
2022-09-12T14:34:09.782Z,3.03
2022-09-12T14:36:42.123Z,2.53
2022-09-12T14:39:29.965Z,2.13
2022-09-12T14:42:16.249Z,2.85
2022-09-12T14:44:56.930Z,3.45
2022-09-12T14:47:33.320Z,2.47
2022-09-12T14:49:59.805Z,4.65
2022-09-12T14:52:30.017Z,3.08
2022-09-12T14:55:17.435Z,3.97
2022-09-12T14:57:45.171Z,5.35
2022-09-12T15:00:20.235Z,3.00
2022-09-12T15:02:48.458Z,4.05
2022-09-12T15:05:21.013Z,2.85
2022-09-12T15:07:50.240Z,5.55
2022-09-12T15:10:24.049Z,4.28
2022-09-12T15:12:51.327Z,2.92
2022-09-12T15:15:21.111Z,6.07
2022-09-12T15:17:47.493Z,4.38
2022-09-12T15:20:14.234Z,4.97
2022-09-12T15:22:41.908Z,2.75
2022-09-12T15:25:10.722Z,4.25
2022-09-12T15:27:40.741Z,5.35
2022-09-12T15:30:08.530Z,3.45
2022-09-12T15:32:34.977Z,3.83
2022-09-12T15:35:01.463Z,3.25
2022-09-12T15:37:28.267Z,3.67
2022-09-12T15:39:54.697Z,2.83
2022-09-12T15:42:28.158Z,3.40
2022-09-12T15:44:57.486Z,3.47
2022-09-12T15:47:26.158Z,5.13
2022-09-12T15:49:52.544Z,4.40
2022-09-12T15:52:19.171Z,2.97
2022-09-12T15:54:45.562Z,3.40
2022-09-12T15:57:11.961Z,3.72
2022-09-12T15:59:38.298Z,4.70
2022-09-12T16:02:04.778Z,4.30
2022-09-12T16:04:31.549Z,3.65
2022-09-12T16:06:58.025Z,6.20
2022-09-12T16:09:24.699Z,3.95
2022-09-12T16:11:51.717Z,3.17
2022-09-12T16:14:19.215Z,4.75
2022-09-12T16:16:52.151Z,8.18
2022-09-12T16:19:18.466Z,3.65
2022-09-12T16:21:44.921Z,5.28
2022-09-12T16:24:11.284Z,3.92
2022-09-12T16:26:37.941Z,5.70
2022-09-12T16:29:05.573Z,6.18
2022-09-12T16:31:31.979Z,6.57
2022-09-12T16:33:58.546Z,8.77
2022-09-12T16:36:24.981Z,3.45
2022-09-12T16:38:53.762Z,3.33
2022-09-12T16:41:22.517Z,8.18
2022-09-12T16:43:49.206Z,8.25
2022-09-12T16:46:19.080Z,3.97
2022-09-12T16:48:52.139Z,3.70
2022-09-12T16:51:21.993Z,3.33
2022-09-12T16:53:48.724Z,5.97
2022-09-12T16:56:15.647Z,6.60
2022-09-12T16:58:43.190Z,8.40
2022-09-12T17:01:15.557Z,5.15
2022-09-12T17:03:42.184Z,3.40
2022-09-12T17:06:27.364Z,5.15
2022-09-12T17:08:55.988Z,3.92
2022-09-12T17:11:26.829Z,3.92
2022-09-12T17:14:11.034Z,6.75
2022-09-12T17:16:39.859Z,2.95
2022-09-12T17:19:07.572Z,5.35
2022-09-12T17:21:35.228Z,3.83
2022-09-12T17:24:01.853Z,3.63
2022-09-12T17:26:28.210Z,3.42
2022-09-12T17:28:54.654Z,5.15
2022-09-12T17:31:21.026Z,5.78
2022-09-12T17:33:47.828Z,4.75
2022-09-12T17:36:16.528Z,7.10
2022-09-12T17:38:44.824Z,4.13
2022-09-12T17:41:18.901Z,6.07
2022-09-12T17:43:51.578Z,5.88
2022-09-12T17:46:19.353Z,7.60
2022-09-12T17:48:51.404Z,3.92
2022-09-12T17:51:17.776Z,7.03
2022-09-12T17:53:44.990Z,5.60
2022-09-12T17:56:12.040Z,8.20
2022-09-12T17:58:38.730Z,6.13
2022-09-12T18:01:28.807Z,4.38
2022-09-12T18:04:03.561Z,5.38
2022-09-12T18:09:06.363Z,5.90
2022-09-12T18:11:33.469Z,5.68
2022-09-12T18:14:00.799Z,4.93
2022-09-12T18:16:28.492Z,8.52
2022-09-12T18:18:55.585Z,10.32
2022-09-12T18:21:22.041Z,5.28
2022-09-12T18:23:48.444Z,10.23
2022-09-12T18:26:15.169Z,5.00
2022-09-12T18:28:43.849Z,7.45
2022-09-12T18:31:13.723Z,8.60
2022-09-12T18:33:40.957Z,8.30
2022-09-12T18:36:09.739Z,7.65
2022-09-12T18:38:36.737Z,6.60
2022-09-12T18:41:05.322Z,10.95
2022-09-12T18:43:31.885Z,6.35
2022-09-12T18:46:04.024Z,8.82
2022-09-12T18:48:32.365Z,9.40
2022-09-12T18:51:03.510Z,8.57
2022-09-12T18:53:29.858Z,9.35
2022-09-12T18:56:10.220Z,13.95
2022-09-12T18:58:37.897Z,5.00
2022-09-12T19:01:22.071Z,7.18
2022-09-12T19:03:49.360Z,7.03
2022-09-12T19:06:19.269Z,7.32
2022-09-12T19:08:45.713Z,6.28
2022-09-12T19:11:13.130Z,8.05
2022-09-12T19:13:42.072Z,9.43
2022-09-12T19:16:11.520Z,5.82
2022-09-12T19:18:39.386Z,7.05
2022-09-12T19:21:08.358Z,12.02
2022-09-12T19:23:35.943Z,5.65
2022-09-12T19:26:07.633Z,9.18
2022-09-12T19:28:34.556Z,8.90
2022-09-12T19:31:05.494Z,5.38
2022-09-12T19:33:31.867Z,7.75
2022-09-12T19:36:04.264Z,9.20
2022-09-12T19:38:30.978Z,7.95
2022-09-12T19:41:12.286Z,11.18
2022-09-12T19:43:41.141Z,6.53
2022-09-12T19:46:07.865Z,6.93
2022-09-12T19:48:35.057Z,5.10
2022-09-12T19:51:02.754Z,6.57
2022-09-12T19:53:30.637Z,7.15
2022-09-12T19:56:01.393Z,8.20
2022-09-12T19:58:28.465Z,6.90
2022-09-12T20:00:55.961Z,6.55
2022-09-12T20:03:23.532Z,5.15
2022-09-12T20:05:49.903Z,5.55
2022-09-12T20:08:16.448Z,6.03
2022-09-12T20:10:42.865Z,6.65
2022-09-12T20:13:09.342Z,5.20
2022-09-12T20:15:35.989Z,6.05
2022-09-12T20:18:02.397Z,8.18
2022-09-12T20:20:28.788Z,7.20
2022-09-12T20:22:55.144Z,7.57
2022-09-12T20:25:21.657Z,8.82
2022-09-12T20:27:48.148Z,7.88
2022-09-12T20:30:15.079Z,5.75
2022-09-12T20:32:42.721Z,7.75
2022-09-12T20:35:09.858Z,6.07
2022-09-12T20:37:36.260Z,5.50
2022-09-12T20:40:04.566Z,6.10
2022-09-12T20:42:31.090Z,5.32
2022-09-12T20:44:57.511Z,6.90
2022-09-12T20:47:23.913Z,7.47
2022-09-12T20:49:50.277Z,5.80
2022-09-12T20:52:16.701Z,10.82
2022-09-12T20:54:43.014Z,5.18
2022-09-12T20:57:09.385Z,7.45
2022-09-12T20:59:39.260Z,4.35
2022-09-12T21:02:05.903Z,6.22
2022-09-12T21:04:32.325Z,5.30
2022-09-12T21:06:58.777Z,4.93
2022-09-12T21:09:25.150Z,7.75
2022-09-12T21:11:51.671Z,6.68
2022-09-12T21:14:17.983Z,7.43
2022-09-12T21:16:44.622Z,4.80
2022-09-12T21:19:10.977Z,4.68
2022-09-12T21:21:37.362Z,6.10
2022-09-12T21:24:04.395Z,5.65
2022-09-12T21:26:31.868Z,5.63
2022-09-12T21:28:58.561Z,6.57
2022-09-12T21:31:25.652Z,4.07
2022-09-12T21:33:52.318Z,5.22
2022-09-12T21:36:18.757Z,4.88
2022-09-12T21:38:45.112Z,4.43
2022-09-12T21:41:14.324Z,4.97
2022-09-12T21:43:41.425Z,5.28
2022-09-12T21:46:08.381Z,6.20
2022-09-12T21:48:35.598Z,5.50
2022-09-12T21:51:02.243Z,5.07
2022-09-12T21:53:28.660Z,4.07
2022-09-12T21:55:55.464Z,8.68
2022-09-12T21:58:21.901Z,3.70
2022-09-12T22:00:48.329Z,6.13
2022-09-12T22:03:15.462Z,4.47
2022-09-12T22:05:42.573Z,4.28
2022-09-12T22:08:10.546Z,5.45
2022-09-12T22:10:38.469Z,5.88
2022-09-12T22:13:05.381Z,7.70
2022-09-12T22:15:40.841Z,7.20
2022-09-12T22:18:07.701Z,9.02
2022-09-12T22:20:34.066Z,4.75
2022-09-12T22:23:24.633Z,5.47
2022-09-12T22:25:55.076Z,4.50
2022-09-12T22:28:21.420Z,5.90
2022-09-12T22:30:48.584Z,8.70
2022-09-12T22:33:15.381Z,9.55
2022-09-12T22:35:42.364Z,6.85
2022-09-12T22:38:09.039Z,10.68
2022-09-12T22:40:35.406Z,8.88
2022-09-12T22:43:02.295Z,6.82
2022-09-12T22:45:28.765Z,7.55
2022-09-12T22:47:56.368Z,9.65
2022-09-12T22:50:25.642Z,6.90
2022-09-12T22:52:52.572Z,5.65
2022-09-12T22:55:19.031Z,6.43
2022-09-12T22:57:45.410Z,6.13
2022-09-12T23:00:12.310Z,10.98
2022-09-12T23:02:38.694Z,7.82
2022-09-12T23:05:05.809Z,8.00
2022-09-12T23:07:32.455Z,5.97
2022-09-12T23:09:58.799Z,6.40
2022-09-12T23:12:25.169Z,5.55
2022-09-12T23:14:51.490Z,5.50
2022-09-12T23:17:18.134Z,7.38
2022-09-12T23:19:48.512Z,6.95
2022-09-12T23:22:14.993Z,7.35
2022-09-12T23:24:41.496Z,5.78
2022-09-12T23:27:08.244Z,7.38
2022-09-12T23:29:35.367Z,5.70
2022-09-12T23:32:03.393Z,8.23
2022-09-12T23:34:29.908Z,6.35
2022-09-12T23:36:56.410Z,6.18
2022-09-12T23:39:25.881Z,9.43
2022-09-12T23:41:52.271Z,6.25
2022-09-12T23:44:18.645Z,6.82
2022-09-12T23:46:45.103Z,7.65
2022-09-12T23:49:11.526Z,5.57
2022-09-12T23:51:37.893Z,5.90
2022-09-12T23:54:04.377Z,5.72
2022-09-12T23:56:30.739Z,7.90
2022-09-12T23:58:57.157Z,7.68
